createdAt,value
2023-03-01T00:01:16.087Z,6.90
2023-03-01T00:03:42.823Z,7.90
2023-03-01T00:06:10.073Z,7.80
2023-03-01T00:08:36.929Z,7.40
2023-03-01T00:11:13.786Z,7.60
2023-03-01T00:13:41.247Z,7.20
2023-03-01T00:16:13.385Z,8.00
2023-03-01T00:18:40.107Z,8.00
2023-03-01T00:21:07.283Z,8.40
2023-03-01T00:23:35.046Z,8.10
2023-03-01T00:26:02.058Z,7.10
2023-03-01T00:28:29.541Z,7.70
2023-03-01T00:30:56.306Z,7.90
2023-03-01T00:33:23.539Z,7.80
2023-03-01T00:35:50.578Z,7.30
2023-03-01T00:38:17.349Z,8.40
2023-03-01T00:40:47.538Z,7.90
2023-03-01T00:43:19.497Z,7.60
2023-03-01T00:45:46.228Z,7.60
2023-03-01T00:48:13.405Z,8.30
2023-03-01T00:50:40.259Z,7.80
2023-03-01T00:53:06.946Z,8.50
2023-03-01T00:55:33.629Z,7.80
2023-03-01T00:58:00.611Z,8.00
2023-03-01T01:00:28.198Z,8.10
2023-03-01T01:02:55.406Z,8.00
2023-03-01T01:05:22.202Z,8.60
2023-03-01T01:07:52.133Z,8.00
2023-03-01T01:10:19.221Z,9.20
2023-03-01T01:12:50.939Z,5.50
2023-03-01T01:15:17.998Z,7.90
2023-03-01T01:17:44.890Z,8.70
2023-03-01T01:20:17.873Z,7.90
2023-03-01T01:22:45.934Z,8.00
2023-03-01T01:25:12.608Z,8.70
2023-03-01T01:27:39.728Z,8.20
2023-03-01T01:30:07.525Z,8.10
2023-03-01T01:32:35.561Z,8.60
2023-03-01T01:35:02.552Z,8.70
2023-03-01T01:37:31.626Z,8.60
2023-03-01T01:39:59.675Z,8.50
2023-03-01T01:42:26.751Z,8.10
2023-03-01T01:45:32.212Z,9.00
2023-03-01T01:48:03.437Z,7.40
2023-03-01T01:50:38.263Z,8.80
2023-03-01T01:53:10.635Z,8.30
2023-03-01T01:55:38.057Z,8.30
2023-03-01T01:58:06.053Z,8.90
2023-03-01T02:00:33.351Z,8.90
2023-03-01T02:03:02.742Z,8.60
2023-03-01T02:05:37.423Z,8.70
2023-03-01T02:08:04.251Z,8.40
2023-03-01T02:10:33.738Z,8.20
2023-03-01T02:13:01.219Z,8.30
2023-03-01T02:15:32.369Z,8.40
2023-03-01T02:17:59.385Z,8.50
2023-03-01T02:20:38.461Z,8.50
2023-03-01T02:23:06.282Z,8.50
2023-03-01T02:25:36.811Z,7.80
2023-03-01T02:28:16.736Z,7.80
2023-03-01T02:31:03.992Z,8.20
2023-03-01T02:33:36.500Z,8.40
2023-03-01T02:36:23.383Z,8.50
2023-03-01T02:38:51.804Z,8.40
2023-03-01T02:41:18.618Z,7.30
2023-03-01T02:43:45.419Z,8.60
2023-03-01T02:46:24.270Z,8.20
2023-03-01T02:48:53.574Z,8.60
2023-03-01T02:51:26.600Z,7.80
2023-03-01T02:54:15.041Z,8.50
2023-03-01T02:56:41.876Z,7.80
2023-03-01T02:59:09.238Z,9.20
2023-03-01T03:01:37.555Z,8.40
2023-03-01T03:04:07.439Z,8.90
2023-03-01T03:06:35.347Z,8.00
2023-03-01T03:09:03.440Z,8.70
2023-03-01T03:11:33.252Z,7.30
2023-03-01T03:14:00.155Z,8.50
2023-03-01T03:16:27.221Z,8.20
2023-03-01T03:19:05.375Z,8.30
2023-03-01T03:21:33.315Z,8.20
2023-03-01T03:24:00.105Z,7.90
2023-03-01T03:26:26.822Z,8.00
2023-03-01T03:28:53.591Z,7.90
2023-03-01T03:31:20.538Z,8.50
2023-03-01T03:33:48.267Z,8.20
2023-03-01T03:36:22.274Z,7.90
2023-03-01T03:38:49.467Z,8.60
2023-03-01T03:41:16.907Z,8.40
2023-03-01T03:43:44.200Z,8.60
2023-03-01T03:46:11.344Z,7.60
2023-03-01T03:48:45.586Z,8.50
2023-03-01T03:51:17.210Z,7.50
2023-03-01T03:53:44.572Z,8.70
2023-03-01T03:56:11.814Z,8.70
2023-03-01T03:58:40.711Z,8.70
2023-03-01T04:01:07.668Z,8.50
2023-03-01T04:03:35.516Z,8.60
2023-03-01T04:06:02.912Z,8.00
2023-03-01T04:08:29.682Z,8.10
2023-03-01T04:11:26.902Z,8.40
2023-03-01T04:13:58.870Z,8.20
2023-03-01T04:16:25.626Z,8.00
2023-03-01T04:18:53.918Z,8.80
2023-03-01T04:21:20.791Z,8.40
2023-03-01T04:23:47.487Z,8.50
2023-03-01T04:26:15.154Z,9.20
2023-03-01T04:28:45.525Z,9.10
2023-03-01T04:31:14.609Z,8.80
2023-03-01T04:33:43.350Z,8.20
2023-03-01T04:36:10.515Z,8.40
2023-03-01T04:38:40.376Z,8.30
2023-03-01T04:41:08.564Z,7.80
2023-03-01T04:43:36.093Z,8.00
2023-03-01T04:46:15.462Z,8.30
2023-03-01T04:48:47.584Z,9.40
2023-03-01T04:51:14.806Z,8.70
2023-03-01T04:53:42.025Z,9.10
2023-03-01T04:56:09.153Z,9.50
2023-03-01T04:58:35.832Z,8.40
2023-03-01T05:01:15.292Z,9.00
2023-03-01T05:03:49.472Z,8.30
2023-03-01T05:06:17.340Z,9.40
2023-03-01T05:08:44.428Z,9.30
2023-03-01T05:11:15.328Z,8.70
2023-03-01T05:13:42.103Z,9.60
2023-03-01T05:16:11.479Z,9.50
2023-03-01T05:18:40.038Z,8.10
2023-03-01T05:21:11.514Z,8.50
2023-03-01T05:23:39.033Z,9.10
2023-03-01T05:26:07.531Z,8.80
2023-03-01T05:28:34.576Z,8.50
2023-03-01T05:31:01.502Z,8.50
2023-03-01T05:33:28.483Z,8.90
2023-03-01T05:35:55.196Z,8.60
2023-03-01T05:38:22.930Z,8.50
2023-03-01T05:40:51.899Z,9.60
2023-03-01T05:43:18.746Z,9.20
2023-03-01T05:45:50.782Z,8.70
2023-03-01T05:56:14.941Z,8.80
2023-03-01T05:58:43.853Z,9.00
2023-03-01T06:01:16.549Z,8.40
2023-03-01T06:06:10.383Z,8.70
2023-03-01T06:08:37.178Z,9.20
2023-03-01T06:11:05.700Z,8.50
2023-03-01T06:13:33.113Z,9.40
2023-03-01T06:16:01.821Z,9.30
2023-03-01T06:18:30.860Z,8.40
2023-03-01T06:20:57.752Z,9.10
2023-03-01T06:23:24.684Z,8.60
2023-03-01T06:25:51.446Z,9.30
2023-03-01T06:28:20.054Z,9.20
2023-03-01T06:30:46.883Z,8.70
2023-03-01T06:33:15.051Z,9.30
2023-03-01T06:35:42.307Z,9.80
2023-03-01T06:38:09.784Z,9.20
2023-03-01T06:40:36.876Z,8.70
2023-03-01T06:43:03.643Z,9.50
2023-03-01T06:45:31.522Z,9.10
2023-03-01T06:48:03.849Z,9.60
2023-03-01T06:50:30.803Z,9.20
2023-03-01T06:52:57.911Z,8.60
2023-03-01T06:55:24.674Z,8.80
2023-03-01T06:57:58.771Z,9.30
2023-03-01T07:00:26.425Z,9.50
2023-03-01T07:02:54.059Z,9.70
2023-03-01T07:05:21.102Z,9.50
2023-03-01T07:07:47.952Z,9.90
2023-03-01T07:10:16.050Z,9.30
2023-03-01T07:12:42.796Z,9.60
2023-03-01T07:15:11.268Z,9.00
2023-03-01T07:17:38.440Z,10.30
2023-03-01T07:20:06.080Z,9.60
2023-03-01T07:22:33.340Z,9.40
2023-03-01T07:25:00.139Z,10.30
2023-03-01T07:27:27.002Z,9.90
2023-03-01T07:29:53.754Z,8.20
2023-03-01T07:32:21.317Z,10.30
2023-03-01T07:34:48.694Z,9.40
2023-03-01T07:37:15.651Z,8.90
2023-03-01T07:39:43.381Z,9.30
2023-03-01T07:42:10.492Z,9.40
2023-03-01T07:44:57.180Z,10.20
2023-03-01T07:47:26.600Z,10.00
2023-03-01T07:49:54.238Z,8.90
2023-03-01T07:52:21.078Z,10.00
2023-03-01T07:54:48.344Z,9.90
2023-03-01T07:57:15.440Z,10.40
2023-03-01T07:59:43.238Z,10.70
2023-03-01T08:02:11.132Z,9.90
2023-03-01T08:04:38.072Z,10.30
2023-03-01T08:07:06.165Z,10.40
2023-03-01T08:09:35.920Z,10.10
2023-03-01T08:12:08.480Z,11.30
2023-03-01T08:14:43.720Z,11.40
2023-03-01T08:17:11.330Z,10.00
2023-03-01T08:19:39.463Z,9.80
2023-03-01T08:22:06.785Z,9.80
2023-03-01T08:24:34.125Z,10.10
2023-03-01T08:27:04.188Z,9.70
2023-03-01T08:29:37.145Z,9.90
2023-03-01T08:32:05.070Z,9.60
2023-03-01T08:34:32.132Z,10.10
2023-03-01T08:36:59.315Z,11.20
2023-03-01T08:39:26.451Z,9.70
2023-03-01T08:41:53.661Z,10.40
2023-03-01T08:44:21.631Z,10.60
2023-03-01T08:46:50.656Z,10.40
2023-03-01T08:49:18.555Z,10.00
2023-03-01T08:51:45.572Z,10.60
2023-03-01T08:54:15.478Z,10.30
2023-03-01T08:56:44.172Z,10.00
2023-03-01T08:59:12.525Z,10.40
2023-03-01T09:01:40.625Z,10.50
2023-03-01T09:04:07.667Z,10.30
2023-03-01T09:06:36.306Z,10.50
2023-03-01T09:09:04.054Z,11.10
2023-03-01T09:11:30.783Z,9.50
2023-03-01T09:13:58.765Z,10.90
2023-03-01T09:16:30.487Z,9.90
2023-03-01T09:18:57.703Z,9.60
2023-03-01T09:21:39.492Z,9.80
2023-03-01T09:24:15.914Z,9.60
2023-03-01T09:26:46.946Z,9.50
2023-03-01T09:29:14.748Z,10.10
2023-03-01T09:31:42.990Z,9.40
2023-03-01T09:34:12.175Z,10.50
2023-03-01T09:36:39.297Z,9.70
2023-03-01T09:39:06.688Z,9.40
2023-03-01T09:42:00.125Z,9.20
2023-03-01T09:47:27.672Z,8.70
2023-03-01T09:49:59.155Z,9.00
2023-03-01T09:52:41.781Z,9.10
2023-03-01T09:55:13.753Z,8.60
2023-03-01T09:57:41.184Z,8.80
2023-03-01T10:00:28.682Z,9.20
2023-03-01T10:03:02.554Z,8.50
2023-03-01T10:05:38.096Z,8.10
2023-03-01T10:08:42.038Z,9.40
2023-03-01T10:11:39.347Z,9.00
2023-03-01T10:14:31.362Z,8.70
2023-03-01T10:17:02.028Z,9.30
2023-03-01T10:19:45.161Z,8.60
2023-03-01T10:24:44.012Z,9.50
2023-03-01T10:27:30.409Z,8.90
2023-03-01T10:30:07.195Z,8.60
2023-03-01T10:32:34.980Z,8.70
2023-03-01T10:35:14.192Z,7.70
2023-03-01T10:37:59.355Z,7.60
2023-03-01T10:42:53.896Z,7.70
2023-03-01T10:45:30.077Z,7.60
2023-03-01T10:48:28.018Z,6.90
2023-03-01T10:51:00.754Z,7.10
2023-03-01T10:53:29.769Z,7.50
2023-03-01T10:56:05.033Z,7.20
2023-03-01T10:58:32.892Z,7.60
2023-03-01T11:01:02.148Z,7.40
2023-03-01T11:03:35.464Z,8.60
2023-03-01T11:06:20.978Z,7.10
2023-03-01T11:08:49.499Z,7.50
2023-03-01T11:11:20.988Z,7.20
2023-03-01T11:14:26.385Z,7.60
2023-03-01T11:17:01.352Z,7.80
2023-03-01T11:19:29.002Z,7.40
2023-03-01T11:22:04.178Z,6.80
2023-03-01T11:24:37.647Z,6.70
2023-03-01T11:27:19.046Z,6.90
2023-03-01T11:29:51.511Z,6.30
2023-03-01T11:32:18.948Z,7.20
2023-03-01T11:35:10.967Z,6.70
2023-03-01T11:37:50.010Z,7.50
2023-03-01T11:40:23.100Z,7.30
2023-03-01T11:42:52.912Z,6.90
2023-03-01T11:45:20.160Z,6.60
2023-03-01T11:48:03.876Z,5.70
2023-03-01T11:50:40.884Z,6.30
2023-03-01T11:53:16.732Z,6.00
2023-03-01T11:56:02.623Z,5.80
2023-03-01T11:58:59.198Z,6.10
2023-03-01T12:01:45.121Z,6.00
2023-03-01T12:04:45.815Z,6.60
2023-03-01T12:07:20.875Z,6.80
